Time;durP1;ratioP1;P1;durP2;ratioP2;P2;SDS_P1;SDS_P2;PMS_P1;PMS_P2;Temp;Humidity;BMP_temperature;BMP_pressure;BME280_temperature;BME280_humidity;BME280_pressure;Samples;Min_cycle;Max_cycle;Signal;HPM_P1;HPM_P2
2021/01/25 00:00:22;;;;;;;35.67;20.33;;;;;;;1.33;93.09;98707.53;4931203;28;20580;-72
2021/01/25 00:02:49;;;;;;;34.50;19.80;;;;;;;1.37;93.39;98709.81;4956239;28;20058;-73
2021/01/25 00:05:15;;;;;;;36.90;19.50;;;;;;;1.27;93.28;98705.59;5029445;28;20050;-72
2021/01/25 00:07:43;;;;;;;35.45;19.90;;;;;;;1.16;92.95;98714.16;4951279;28;20042;-72
2021/01/25 00:10:10;;;;;;;33.30;18.55;;;;;;;1.22;92.95;98699.97;5026221;28;20550;-72
2021/01/25 00:12:36;;;;;;;35.53;18.75;;;;;;;1.20;92.59;98710.09;4967229;28;20059;-72
2021/01/25 00:15:04;;;;;;;33.72;18.92;;;;;;;1.09;92.28;98707.91;4966068;28;20134;-72
2021/01/25 00:17:31;;;;;;;32.10;17.80;;;;;;;1.16;93.20;98708.81;4947178;28;20046;-73
2021/01/25 00:19:57;;;;;;;31.65;16.90;;;;;;;1.15;92.66;98701.78;4948429;28;20047;-73
2021/01/25 00:22:25;;;;;;;30.35;16.50;;;;;;;1.24;92.89;98695.25;4941539;29;20051;-72
2021/01/25 00:24:52;;;;;;;27.77;15.60;;;;;;;1.17;92.36;98701.59;4947099;29;20043;-71
2021/01/25 00:27:18;;;;;;;32.13;17.88;;;;;;;1.06;92.24;98700.25;4961400;28;20074;-72
2021/01/25 00:29:44;;;;;;;30.02;16.98;;;;;;;1.06;93.10;98694.88;4964036;28;20051;-72
2021/01/25 00:32:10;;;;;;;33.67;17.63;;;;;;;0.98;93.39;98695.88;4952202;28;20043;-72
2021/01/25 00:34:40;;;;;;;38.75;20.20;;;;;;;0.90;93.14;98697.84;4969777;28;20112;-72
2021/01/25 00:37:06;;;;;;;;;;;;;;;0.62;92.96;98697.78;4953251;28;20055;-72
2021/01/25 00:39:33;;;;;;;32.65;16.15;;;;;;;0.78;93.45;98699.34;4951842;28;19926;-72
2021/01/25 00:41:59;;;;;;;31.80;17.50;;;;;;;0.69;92.39;98695.16;4962087;28;20455;-72
2021/01/25 00:44:26;;;;;;;33.25;16.83;;;;;;;0.69;93.24;98701.34;4954614;28;20047;-72
2021/01/25 00:46:52;;;;;;;31.40;17.23;;;;;;;0.64;92.56;98693.88;4970215;28;20133;-72
2021/01/25 00:49:19;;;;;;;35.45;17.83;;;;;;;0.51;93.71;98695.56;4927551;29;20061;-73
2021/01/25 00:51:45;;;;;;;30.48;16.25;;;;;;;0.54;92.98;98698.72;4952119;28;20050;-72
2021/01/25 00:54:12;;;;;;;29.88;16.38;;;;;;;0.50;92.75;98700.09;5031156;28;20445;-72
2021/01/25 00:56:39;;;;;;;28.88;15.27;;;;;;;0.64;93.19;98709.13;4958400;28;20066;-72
2021/01/25 00:59:06;;;;;;;29.20;16.08;;;;;;;0.77;92.93;98703.06;4963997;28;20046;-72
2021/01/25 01:01:32;;;;;;;26.50;14.48;;;;;;;0.84;92.60;98701.28;4947937;28;20062;-72
2021/01/25 01:03:59;;;;;;;30.75;15.73;;;;;;;0.69;93.20;98705.88;4969727;28;20066;-72
2021/01/25 01:06:25;;;;;;;23.48;13.93;;;;;;;0.82;93.49;98711.38;4953587;28;20043;-72
2021/01/25 01:08:51;;;;;;;24.27;13.93;;;;;;;0.91;92.38;98712.91;4927746;29;20043;-73
2021/01/25 01:11:18;;;;;;;27.23;13.35;;;;;;;0.94;91.98;98708.00;4966317;28;20512;-72
2021/01/25 01:13:44;;;;;;;22.95;12.68;;;;;;;0.60;92.10;98706.00;4953647;28;20107;-72
2021/01/25 01:16:10;;;;;;;26.48;14.43;;;;;;;0.63;93.64;98702.09;4970095;28;20129;-72
2021/01/25 01:18:37;;;;;;;26.38;14.02;;;;;;;0.58;92.46;98705.34;4939039;29;20524;-73
2021/01/25 01:21:04;;;;;;;24.60;12.68;;;;;;;0.38;92.96;98701.59;4951514;28;20054;-72
2021/01/25 01:23:30;;;;;;;24.40;13.02;;;;;;;0.35;92.41;98699.28;4937720;28;20508;-72
2021/01/25 01:25:57;;;;;;;22.88;13.18;;;;;;;0.23;91.94;98707.00;4968400;28;20051;-73
2021/01/25 01:28:23;;;;;;;23.27;12.57;;;;;;;0.06;92.37;98704.69;4969873;28;20519;-72
2021/01/25 01:30:49;;;;;;;23.30;12.88;;;;;;;-0.20;93.28;98706.00;4966373;28;20511;-73
2021/01/25 01:33:16;;;;;;;25.67;13.13;;;;;;;-0.42;94.47;98709.63;4953940;28;20497;-72
2021/01/25 01:35:42;;;;;;;27.00;13.23;;;;;;;-0.65;94.07;98708.81;4969565;28;20101;-72
2021/01/25 01:38:08;;;;;;;27.05;13.48;;;;;;;-0.67;94.37;98709.84;4962021;28;20135;-72
2021/01/25 01:40:35;;;;;;;25.95;12.73;;;;;;;-0.64;95.67;98708.66;4959549;28;20089;-73
2021/01/25 01:43:01;;;;;;;32.60;12.70;;;;;;;-0.68;95.27;98700.16;4953056;28;20066;-72
2021/01/25 01:45:27;;;;;;;26.63;12.18;;;;;;;-0.86;95.45;98707.69;4977602;28;20051;-72
2021/01/25 01:47:55;;;;;;;26.10;12.27;;;;;;;-0.77;95.51;98695.06;5001099;23;20051;-75
2021/01/25 01:50:21;;;;;;;23.38;12.23;;;;;;;-0.90;95.16;98698.34;5037230;28;20062;-75
2021/01/25 01:52:48;;;;;;;26.13;12.02;;;;;;;-0.89;95.19;98707.22;4969783;28;20432;-75
2021/01/25 01:55:14;;;;;;;27.88;13.10;;;;;;;-0.89;94.89;98701.88;4972623;28;20046;-74
2021/01/25 01:57:41;;;;;;;24.95;12.68;;;;;;;-0.97;95.18;98707.28;5046760;28;20049;-75
2021/01/25 02:00:08;;;;;;;25.83;12.00;;;;;;;-0.87;95.60;98708.69;5059524;28;20108;-75
2021/01/25 02:02:39;;;;;;;22.25;11.25;;;;;;;-0.93;95.66;98712.09;5070851;28;20052;-75
2021/01/25 02:05:06;;;;;;;24.52;11.57;;;;;;;-0.92;95.04;98718.25;5070610;28;20464;-74
2021/01/25 02:07:34;;;;;;;24.92;11.68;;;;;;;-0.96;95.29;98715.13;5053967;28;20052;-74
2021/01/25 02:10:03;;;;;;;24.10;12.70;;;;;;;-0.86;95.27;98713.03;5068753;28;20051;-75
2021/01/25 02:12:30;;;;;;;28.83;12.77;;;;;;;-0.91;94.96;98709.22;5031752;28;20041;-75
2021/01/25 02:14:58;;;;;;;25.63;12.57;;;;;;;-0.87;94.92;98711.38;5057660;28;20463;-74
2021/01/25 02:17:25;;;;;;;26.02;11.45;;;;;;;-0.85;95.30;98700.50;5083854;28;20650;-74
2021/01/25 02:20:01;;;;;;;27.05;12.20;;;;;;;-0.88;95.90;98707.03;5070022;28;20124;-75
2021/01/25 02:22:37;;;;;;;26.17;12.52;;;;;;;-0.85;95.22;98706.69;5077668;28;20102;-73
2021/01/25 02:25:15;;;;;;;22.52;11.55;;;;;;;-0.93;95.79;98704.06;5068322;28;20056;-75
2021/01/25 02:27:44;;;;;;;24.98;12.27;;;;;;;-0.92;96.23;98703.06;5054587;28;20525;-75
2021/01/25 02:30:16;;;;;;;23.77;11.65;;;;;;;-1.03;95.66;98703.47;5036835;28;20044;-75
2021/01/25 02:32:43;;;;;;;27.65;13.05;;;;;;;-0.99;96.16;98699.44;5037349;28;20059;-74
2021/01/25 02:35:12;;;;;;;29.05;12.32;;;;;;;-1.03;95.81;98698.13;5037760;28;20494;-75
2021/01/25 02:37:39;;;;;;;27.33;13.13;;;;;;;-1.06;94.91;98703.84;5031640;28;20040;-74
2021/01/25 02:40:07;;;;;;;24.58;11.75;;;;;;;-0.89;94.91;98704.53;5042060;28;20102;-75
2021/01/25 02:42:35;;;;;;;;;;;;;;;-0.97;95.20;98701.94;5047020;28;20083;-75
2021/01/25 02:45:02;;;;;;;26.10;12.18;;;;;;;-1.07;94.75;98702.19;5069749;28;19924;-75
2021/01/25 02:47:29;;;;;;;23.58;11.85;;;;;;;-1.00;94.99;98705.78;5052537;28;20468;-75
2021/01/25 02:49:56;;;;;;;26.20;12.57;;;;;;;-1.11;94.80;98706.22;5074867;28;20076;-75
2021/01/25 02:52:23;;;;;;;23.80;12.57;;;;;;;-1.18;94.68;98710.63;5086479;28;20044;-75
2021/01/25 02:54:49;;;;;;;24.27;12.00;;;;;;;-1.37;94.64;98723.41;5053160;28;20053;-75
2021/01/25 02:57:16;;;;;;;27.02;12.70;;;;;;;-1.37;95.11;98712.75;5036925;28;20041;-75
2021/01/25 02:59:43;;;;;;;29.27;13.00;;;;;;;-1.42;95.05;98720.47;5049572;28;20106;-75
2021/01/25 03:02:11;;;;;;;27.05;12.82;;;;;;;-1.49;95.42;98719.50;5036802;28;20080;-74
2021/01/25 03:04:38;;;;;;;32.22;13.85;;;;;;;-1.60;95.69;98727.91;5025413;28;20074;-75
2021/01/25 03:07:05;;;;;;;34.70;13.70;;;;;;;-1.84;95.76;98736.88;5086341;28;20094;-75
2021/01/25 03:09:32;;;;;;;41.80;15.27;;;;;;;-1.92;95.77;98722.75;5073797;28;20071;-75
2021/01/25 03:12:01;;;;;;;38.22;14.88;;;;;;;-1.91;95.85;98730.56;5053858;28;20125;-75
2021/01/25 03:14:28;;;;;;;42.38;15.13;;;;;;;-2.01;96.45;98729.94;5072834;28;20434;-74
2021/01/25 03:16:55;;;;;;;47.20;16.48;;;;;;;-1.87;96.96;98725.72;5051062;28;20094;-75
2021/01/25 03:19:21;;;;;;;54.72;17.02;;;;;;;-1.86;97.04;98728.22;5025632;28;20048;-75
2021/01/25 03:21:53;;;;;;;45.05;16.10;;;;;;;-1.59;97.22;98734.09;5035732;28;20056;-75
2021/01/25 03:24:19;;;;;;;45.67;17.48;;;;;;;-1.36;97.36;98732.28;5041010;28;20069;-75
2021/01/25 03:26:46;;;;;;;37.15;15.52;;;;;;;-1.35;96.64;98732.09;5059082;28;20078;-75
2021/01/25 03:29:13;;;;;;;40.50;15.80;;;;;;;-1.33;96.80;98739.09;5052870;28;20067;-75
2021/01/25 03:31:39;;;;;;;33.97;15.65;;;;;;;-1.11;96.33;98727.63;5052928;28;20053;-75
2021/01/25 03:34:06;;;;;;;31.63;13.93;;;;;;;-0.87;96.24;98730.09;5053056;28;20067;-75
2021/01/25 03:36:34;;;;;;;30.50;13.50;;;;;;;-0.78;95.33;98734.38;5079875;28;20045;-75
2021/01/25 03:39:01;;;;;;;30.15;14.02;;;;;;;-0.67;95.26;98735.75;5038308;28;20067;-75
2021/01/25 03:41:27;;;;;;;28.73;14.88;;;;;;;-0.68;94.79;98731.41;5052572;28;20126;-75
2021/01/25 03:43:53;;;;;;;27.90;13.52;;;;;;;-0.60;94.92;98730.50;5049562;28;20139;-74
2021/01/25 03:46:20;;;;;;;26.42;13.07;;;;;;;-0.61;95.43;98739.56;5025388;28;20052;-75
2021/01/25 03:48:46;;;;;;;32.80;13.27;;;;;;;-0.50;94.65;98744.47;5052300;28;20090;-74
2021/01/25 03:51:14;;;;;;;25.05;12.82;;;;;;;-0.55;94.45;98734.31;5041731;28;20567;-75
2021/01/25 03:53:41;;;;;;;28.92;12.88;;;;;;;-0.69;94.05;98749.31;5044431;28;20056;-75
2021/01/25 03:56:07;;;;;;;27.35;12.98;;;;;;;-0.70;94.69;98734.31;5070250;28;20128;-72
2021/01/25 03:58:34;;;;;;;31.55;13.57;;;;;;;-0.80;94.71;98743.56;5052814;28;20468;-75
2021/01/25 04:01:00;;;;;;;31.45;14.60;;;;;;;-1.11;94.42;98749.00;5068848;28;20592;-75
2021/01/25 04:03:26;;;;;;;29.15;13.82;;;;;;;-1.09;94.78;98744.31;5072648;28;20052;-75
2021/01/25 04:05:53;;;;;;;29.67;13.82;;;;;;;-1.02;95.46;98743.38;5046436;28;20110;-75
2021/01/25 04:08:19;;;;;;;31.33;14.20;;;;;;;-1.01;95.00;98738.88;5089930;28;20040;-75
2021/01/25 04:10:46;;;;;;;31.67;13.25;;;;;;;-0.91;95.25;98742.16;5056936;28;20053;-75
2021/01/25 04:13:12;;;;;;;25.80;13.52;;;;;;;-0.92;94.51;98743.16;5048448;28;20044;-75
2021/01/25 04:15:38;;;;;;;25.95;12.13;;;;;;;-0.98;94.82;98741.19;5037849;28;20045;-74
2021/01/25 04:18:05;;;;;;;28.17;13.55;;;;;;;-1.06;94.81;98747.47;5042324;28;20049;-75
2021/01/25 04:20:31;;;;;;;28.98;13.68;;;;;;;-1.05;95.04;98743.78;5039494;28;20056;-74
2021/01/25 04:22:58;;;;;;;35.20;14.90;;;;;;;-1.19;94.69;98743.69;5023800;28;20135;-75
2021/01/25 04:25:25;;;;;;;36.58;14.65;;;;;;;-1.13;94.70;98753.69;5056158;28;20056;-75
2021/01/25 04:27:51;;;;;;;34.63;14.00;;;;;;;-0.95;94.67;98742.69;5052382;28;20053;-75
2021/01/25 04:30:18;;;;;;;30.45;14.60;;;;;;;-0.97;95.13;98748.19;5021639;28;20219;-75
2021/01/25 04:32:44;;;;;;;33.95;14.02;;;;;;;-0.81;95.31;98750.75;5080521;28;20080;-75
2021/01/25 04:35:13;;;;;;;28.38;13.45;;;;;;;-0.72;94.34;98754.22;5074299;28;20044;-75
2021/01/25 04:37:40;;;;;;;28.50;13.40;;;;;;;-0.75;94.68;98755.41;5077531;28;20056;-75
2021/01/25 04:40:08;;;;;;;31.50;13.80;;;;;;;-0.87;94.96;98758.66;5078987;28;20055;-75
2021/01/25 04:42:36;;;;;;;31.83;14.20;;;;;;;-1.05;94.38;98756.31;5072856;28;20570;-75
2021/01/25 04:45:07;;;;;;;30.48;14.80;;;;;;;-1.07;95.31;98753.81;5055936;28;20053;-74
2021/01/25 04:47:35;;;;;;;35.95;15.05;;;;;;;-1.03;95.71;98756.94;5027820;28;20536;-75
2021/01/25 04:50:03;;;;;;;33.90;13.55;;;;;;;-1.16;94.81;98756.72;5072372;28;20044;-75
2021/01/25 04:52:31;;;;;;;33.75;15.02;;;;;;;-1.16;95.12;98751.38;5089561;28;20044;-75
2021/01/25 04:54:57;;;;;;;29.20;13.25;;;;;;;-1.04;95.46;98763.31;5072757;28;20044;-75
2021/01/25 04:57:25;;;;;;;29.77;13.25;;;;;;;-0.72;95.21;98752.38;5039485;28;20068;-74
2021/01/25 04:59:52;;;;;;;31.92;13.65;;;;;;;-0.61;93.67;98760.94;5089176;28;20044;-75
2021/01/25 05:02:19;;;;;;;30.45;13.27;;;;;;;-0.62;93.94;98759.28;5061305;28;20044;-75
2021/01/25 05:04:46;;;;;;;29.67;13.55;;;;;;;-0.72;94.25;98760.38;5057389;28;20131;-75
2021/01/25 05:07:12;;;;;;;30.05;14.23;;;;;;;-0.86;94.94;98768.34;5089319;28;20048;-75
2021/01/25 05:09:39;;;;;;;29.42;12.75;;;;;;;-0.92;95.15;98769.91;5088742;28;20051;-75
2021/01/25 05:12:05;;;;;;;27.80;13.52;;;;;;;-1.18;94.14;98764.06;5055394;28;20050;-75
2021/01/25 05:14:42;;;;;;;30.88;13.05;;;;;;;-1.35;93.90;98777.50;5071652;28;20048;-75
2021/01/25 05:17:13;;;;;;;34.60;13.68;;;;;;;-1.45;94.76;98784.94;5055276;28;20048;-75
2021/01/25 05:19:45;;;;;;;36.42;14.98;;;;;;;-1.33;95.21;98781.84;5062551;28;20041;-75
2021/01/25 05:22:14;;;;;;;41.33;16.38;;;;;;;-1.40;94.75;98787.09;5055290;28;20048;-75
2021/01/25 05:24:45;;;;;;;38.13;13.60;;;;;;;-1.48;94.49;98797.81;5055195;28;20044;-75
2021/01/25 05:27:20;;;;;;;42.45;15.10;;;;;;;-1.53;94.77;98790.31;5054506;28;20076;-75
2021/01/25 05:29:47;;;;;;;37.90;13.73;;;;;;;-1.65;95.02;98790.84;5067983;28;20045;-75
2021/01/25 05:32:14;;;;;;;35.95;13.95;;;;;;;-1.71;95.25;98795.06;5088965;28;20457;-75
2021/01/25 05:34:40;;;;;;;39.67;15.50;;;;;;;-1.73;95.06;98797.06;5071502;28;20053;-75
2021/01/25 05:37:13;;;;;;;39.47;14.35;;;;;;;-1.72;94.96;98796.88;5064022;28;20044;-75
2021/01/25 05:39:43;;;;;;;39.53;14.35;;;;;;;-1.74;94.63;98800.75;5063450;28;20086;-75
2021/01/25 05:42:10;;;;;;;33.90;13.27;;;;;;;-1.77;94.95;98801.09;5053059;28;20506;-75
2021/01/25 05:44:37;;;;;;;38.67;13.98;;;;;;;-1.74;94.92;98795.41;5082830;28;20052;-75
2021/01/25 05:47:07;;;;;;;37.58;14.15;;;;;;;-1.89;94.52;98797.13;5055692;28;20060;-74
2021/01/25 05:49:34;;;;;;;41.92;14.60;;;;;;;-1.85;94.80;98799.28;5078616;28;20123;-75
2021/01/25 05:52:00;;;;;;;43.15;14.18;;;;;;;-1.97;94.83;98802.47;5061813;28;20570;-74
2021/01/25 05:54:31;;;;;;;45.45;15.02;;;;;;;-2.02;95.07;98798.50;5074285;28;20048;-74
2021/01/25 05:56:57;;;;;;;43.03;15.07;;;;;;;-1.89;95.31;98803.31;5055466;28;20045;-75
2021/01/25 05:59:24;;;;;;;50.25;15.38;;;;;;;-1.94;94.92;98802.97;5054551;28;20056;-75
2021/01/25 06:01:50;;;;;;;46.33;14.63;;;;;;;-1.87;95.57;98800.47;5073302;28;20044;-75
2021/01/25 06:04:19;;;;;;;33.40;12.85;;;;;;;-1.75;95.37;98801.78;5057066;28;20406;-75
2021/01/25 06:07:05;;;;;;;41.60;14.10;;;;;;;-1.72;94.90;98796.06;5054416;28;20055;-75
2021/01/25 06:09:43;;;;;;;40.70;14.75;;;;;;;-1.66;95.06;98803.38;5054707;28;20478;-75
2021/01/25 06:12:09;;;;;;;36.13;13.27;;;;;;;-1.61;94.63;98806.38;5070853;28;20517;-75
2021/01/25 06:14:39;;;;;;;34.55;13.02;;;;;;;-1.49;94.58;98814.84;5054565;28;20075;-75
2021/01/25 06:17:09;;;;;;;30.80;12.60;;;;;;;-1.70;93.56;98802.88;5034085;28;20068;-74
2021/01/25 06:19:35;;;;;;;34.65;14.13;;;;;;;-1.64;94.73;98814.72;5037659;28;20052;-74
2021/01/25 06:22:02;;;;;;;31.52;13.32;;;;;;;-1.79;94.39;98814.63;5071196;28;20110;-74
2021/01/25 06:24:29;;;;;;;32.03;13.15;;;;;;;-1.78;94.32;98815.47;5071803;28;20044;-75
2021/01/25 06:26:55;;;;;;;39.03;14.57;;;;;;;-1.75;94.70;98820.47;5040325;28;20040;-75
2021/01/25 06:29:22;;;;;;;37.38;14.98;;;;;;;-1.78;94.76;98820.78;5063544;28;20048;-75
2021/01/25 06:31:55;;;;;;;32.38;13.20;;;;;;;-1.72;94.55;98822.75;5074266;28;20464;-75
2021/01/25 06:34:22;;;;;;;34.33;15.05;;;;;;;-1.78;94.32;98821.63;5067865;28;20053;-74
2021/01/25 06:36:50;;;;;;;39.20;15.45;;;;;;;-1.81;94.46;98831.81;5050367;28;20068;-75
2021/01/25 06:39:24;;;;;;;37.90;14.90;;;;;;;-1.89;94.47;98827.31;5066107;28;20123;-75
2021/01/25 06:42:02;;;;;;;36.28;15.15;;;;;;;-1.87;94.66;98832.50;5037223;28;20048;-75
2021/01/25 06:44:30;;;;;;;35.88;14.98;;;;;;;-1.86;95.00;98832.31;5037545;28;20041;-75
2021/01/25 06:46:57;;;;;;;39.58;15.25;;;;;;;-1.89;95.24;98837.16;5013543;28;20474;-75
2021/01/25 06:49:25;;;;;;;47.88;15.75;;;;;;;-1.96;94.96;98834.34;5037154;28;20041;-75
2021/01/25 06:51:55;;;;;;;40.55;15.18;;;;;;;-2.02;94.85;98838.53;5054063;28;20041;-75
2021/01/25 06:54:23;;;;;;;40.03;14.73;;;;;;;-1.92;94.55;98841.00;5040557;28;20417;-75
2021/01/25 06:56:52;;;;;;;32.15;13.60;;;;;;;-1.83;94.41;98844.50;5036842;28;20424;-75
2021/01/25 06:59:32;;;;;;;36.50;14.63;;;;;;;-1.81;93.75;98846.00;5054431;28;20402;-75
2021/01/25 07:01:59;;;;;;;35.47;14.05;;;;;;;-1.78;94.13;98847.50;5069707;28;20051;-75
2021/01/25 07:04:29;;;;;;;31.48;13.27;;;;;;;-1.78;93.60;98847.50;5038928;28;20582;-75
2021/01/25 07:06:56;;;;;;;36.55;14.18;;;;;;;-1.74;93.76;98848.81;5056646;28;20054;-75
2021/01/25 07:09:33;;;;;;;32.50;13.10;;;;;;;-1.70;93.45;98850.13;5054805;28;20623;-74
2021/01/25 07:12:03;;;;;;;37.50;13.90;;;;;;;-1.67;93.58;98851.63;5070565;28;20075;-75
2021/01/25 07:14:31;;;;;;;32.17;14.15;;;;;;;-1.64;93.58;98854.78;5063192;28;20036;-75
2021/01/25 07:16:59;;;;;;;35.97;13.55;;;;;;;-1.53;92.73;98845.56;5031735;28;20399;-74
2021/01/25 07:19:26;;;;;;;28.17;13.05;;;;;;;-1.53;92.89;98851.75;5046690;28;20383;-75
2021/01/25 07:21:54;;;;;;;32.63;13.70;;;;;;;-1.40;93.68;98851.22;5053048;28;20124;-75
2021/01/25 07:24:25;;;;;;;31.63;13.15;;;;;;;-1.12;92.94;98854.25;5044440;28;20121;-74
2021/01/25 07:26:57;;;;;;;30.13;14.50;;;;;;;-0.74;91.10;98863.22;5070628;28;20048;-75
2021/01/25 07:29:25;;;;;;;30.40;14.55;;;;;;;-0.81;89.78;98860.41;5034470;28;20098;-75
2021/01/25 07:31:52;;;;;;;28.08;13.18;;;;;;;-0.78;89.94;98872.59;5053066;28;20143;-74
2021/01/25 07:34:19;;;;;;;27.10;12.98;;;;;;;-0.43;90.47;98868.50;5086320;28;20089;-75
2021/01/25 07:36:46;;;;;;;36.80;13.85;;;;;;;-0.39;90.77;98880.50;5069466;28;20131;-75
2021/01/25 07:39:14;;;;;;;25.08;12.10;;;;;;;-0.22;90.46;98882.03;5082307;28;20045;-75
2021/01/25 07:41:41;;;;;;;26.50;12.90;;;;;;;-0.30;90.42;98882.09;5049825;28;20132;-75
2021/01/25 07:44:09;;;;;;;23.08;12.43;;;;;;;0.15;87.67;98875.84;5068892;28;20048;-73
2021/01/25 07:46:36;;;;;;;23.40;11.20;;;;;;;0.18;85.77;98888.03;5049483;28;20071;-73
2021/01/25 07:49:07;;;;;;;23.63;11.02;;;;;;;0.30;85.04;98887.41;5085413;23;20044;-73
2021/01/25 07:51:35;;;;;;;19.98;10.73;;;;;;;1.33;86.06;98887.31;5035743;28;20052;-73
2021/01/25 07:54:02;;;;;;;22.17;10.30;;;;;;;1.88;82.45;98887.63;5090499;28;20048;-73
2021/01/25 07:56:29;;;;;;;22.05;11.05;;;;;;;3.92;80.55;98885.94;5074158;28;20506;-73
2021/01/25 07:59:16;;;;;;;23.33;11.95;;;;;;;6.19;73.19;98875.78;5055240;28;20570;-73
2021/01/25 08:01:57;;;;;;;20.38;11.15;;;;;;;6.85;69.42;98882.44;5050849;28;20039;-74
2021/01/25 08:04:27;;;;;;;19.27;11.65;;;;;;;7.28;65.36;98883.16;5053065;28;20069;-73
2021/01/25 08:06:56;;;;;;;21.17;11.45;;;;;;;7.43;67.55;98879.25;5039204;28;20056;-74
2021/01/25 08:09:23;;;;;;;20.48;10.93;;;;;;;7.49;67.00;98889.16;5070073;28;20048;-73
2021/01/25 08:11:50;;;;;;;17.23;9.90;;;;;;;8.05;65.06;98880.63;5081435;28;20048;-73
2021/01/25 08:14:35;;;;;;;17.58;11.07;;;;;;;6.55;63.38;98890.47;5035257;28;20160;-73
2021/01/25 08:17:05;;;;;;;18.73;10.15;;;;;;;5.70;65.04;98898.16;5045000;28;20132;-73
2021/01/25 08:19:39;;;;;;;20.50;10.63;;;;;;;6.09;64.21;98905.19;5054112;28;20040;-73
2021/01/25 08:22:13;;;;;;;17.15;10.02;;;;;;;6.44;64.13;98897.41;5086907;28;20056;-73
2021/01/25 08:24:39;;;;;;;16.08;10.05;;;;;;;6.51;61.99;98906.31;5054856;28;20047;-73
2021/01/25 08:27:16;;;;;;;18.63;11.50;;;;;;;7.30;60.98;98913.56;5064546;28;20051;-72
2021/01/25 08:29:44;;;;;;;18.20;11.07;;;;;;;9.39;58.89;98897.84;5038993;28;20127;-73
2021/01/25 08:32:23;;;;;;;15.63;10.18;;;;;;;10.25;54.48;98904.16;5026793;28;20737;-73
2021/01/25 08:34:58;;;;;;;16.40;10.30;;;;;;;9.57;56.78;98900.41;5019095;28;20521;-72
2021/01/25 08:37:33;;;;;;;18.80;11.80;;;;;;;10.53;55.72;98901.34;5064344;28;20047;-73
2021/01/25 08:40:20;;;;;;;16.83;10.10;;;;;;;10.02;51.08;98910.53;5064707;28;20071;-73
2021/01/25 08:42:47;;;;;;;16.10;10.50;;;;;;;10.34;51.98;98910.84;5048240;28;20256;-72
2021/01/25 08:45:23;;;;;;;17.15;10.43;;;;;;;10.64;51.40;98913.25;5053653;28;20086;-72
2021/01/25 08:47:50;;;;;;;15.77;10.48;;;;;;;11.39;51.13;98916.25;5073947;28;20059;-72
2021/01/25 08:50:25;;;;;;;15.20;10.35;;;;;;;10.40;55.67;98913.38;5072541;28;20044;-73
2021/01/25 08:53:04;;;;;;;14.50;9.93;;;;;;;8.48;55.82;98920.28;5059315;28;20056;-73
2021/01/25 08:55:36;;;;;;;16.73;10.82;;;;;;;5.68;62.50;98930.78;5048453;28;20040;-74
2021/01/25 08:58:26;;;;;;;17.55;11.07;;;;;;;5.72;65.06;98931.19;5057074;28;20044;-73
2021/01/25 09:00:53;;;;;;;18.25;10.95;;;;;;;4.76;68.97;98930.31;5069100;28;20124;-73
2021/01/25 09:03:20;;;;;;;19.88;11.80;;;;;;;4.68;67.55;98951.06;5056145;28;20730;-73
2021/01/25 09:05:50;;;;;;;18.00;10.80;;;;;;;4.29;68.71;98948.38;5055452;28;20060;-73
2021/01/25 09:08:16;;;;;;;21.00;11.48;;;;;;;4.38;69.47;98939.88;5047291;28;20044;-73
2021/01/25 09:10:42;;;;;;;20.52;10.48;;;;;;;3.68;69.26;98954.72;5030030;28;20056;-73
2021/01/25 09:13:09;;;;;;;19.17;11.80;;;;;;;4.18;71.65;98948.97;5045669;28;20062;-73
2021/01/25 09:15:35;;;;;;;20.35;11.90;;;;;;;4.00;69.63;98952.28;5058436;28;20048;-73
2021/01/25 09:18:01;;;;;;;18.38;11.18;;;;;;;3.71;68.06;98958.88;5088473;28;20135;-73
2021/01/25 09:20:28;;;;;;;20.17;12.20;;;;;;;4.61;70.17;98958.31;5082869;28;20043;-73
2021/01/25 09:22:54;;;;;;;22.70;10.70;;;;;;;4.30;68.33;98958.94;5058614;28;20051;-73
2021/01/25 09:25:22;;;;;;;18.08;11.43;;;;;;;5.00;71.17;98962.00;5072018;28;20153;-73
2021/01/25 09:27:49;;;;;;;18.90;11.45;;;;;;;4.67;68.19;98965.59;5055016;28;20140;-73
2021/01/25 09:30:17;;;;;;;17.95;10.30;;;;;;;5.87;65.21;98966.88;5058446;28;20036;-73
2021/01/25 09:32:44;;;;;;;19.23;10.15;;;;;;;6.70;62.21;98961.31;5068289;28;20521;-72
2021/01/25 09:35:13;;;;;;;15.05;8.70;;;;;;;6.80;58.17;98968.94;5093037;28;20127;-72
2021/01/25 09:37:39;;;;;;;12.70;8.32;;;;;;;5.59;62.45;98979.88;5070948;28;20057;-73
2021/01/25 09:40:07;;;;;;;17.80;9.23;;;;;;;6.08;65.00;98979.25;5074312;28;20036;-73
2021/01/25 09:42:33;;;;;;;18.63;9.80;;;;;;;6.96;59.95;98974.59;5074379;28;20067;-73
2021/01/25 09:45:11;;;;;;;13.77;8.75;;;;;;;6.95;60.75;98975.63;5057589;28;20050;-73
2021/01/25 09:47:37;;;;;;;;;;;;;;;7.57;58.75;98979.16;5045381;28;20139;-73
2021/01/25 09:50:04;;;;;;;15.75;8.20;;;;;;;7.89;57.48;98973.53;5091503;28;19992;-73
2021/01/25 09:52:31;;;;;;;15.02;8.60;;;;;;;6.23;61.11;98981.66;5074136;28;20101;-73
2021/01/25 09:54:57;;;;;;;15.98;9.07;;;;;;;5.14;61.07;98982.56;5089634;28;20054;-75
2021/01/25 09:57:23;;;;;;;16.08;9.80;;;;;;;4.83;63.58;98988.63;5057335;28;20043;-73
2021/01/25 09:59:50;;;;;;;14.93;9.27;;;;;;;4.80;64.08;98980.13;5054734;28;20052;-73
2021/01/25 10:02:16;;;;;;;16.95;9.73;;;;;;;4.91;64.95;98984.84;5064519;28;20052;-74
2021/01/25 10:04:43;;;;;;;15.38;8.82;;;;;;;5.13;65.90;98986.28;5055681;28;20123;-73
2021/01/25 10:07:09;;;;;;;17.23;9.73;;;;;;;5.54;62.56;98983.25;5064527;28;20139;-73
2021/01/25 10:09:37;;;;;;;17.90;9.48;;;;;;;5.84;61.28;98983.53;5065568;28;20123;-73
2021/01/25 10:12:03;;;;;;;16.83;9.98;;;;;;;5.24;62.78;98985.63;5057733;28;20048;-73
2021/01/25 10:14:32;;;;;;;16.02;9.80;;;;;;;5.44;66.07;98992.84;5062317;28;20072;-73
2021/01/25 10:16:59;;;;;;;15.48;9.65;;;;;;;6.25;62.60;98993.06;5037574;28;20052;-74
2021/01/25 10:19:25;;;;;;;14.45;9.15;;;;;;;5.77;60.46;98990.00;5014258;28;20056;-73
2021/01/25 10:21:51;;;;;;;15.93;9.00;;;;;;;5.36;61.24;98986.63;5041714;28;20066;-73
2021/01/25 10:24:18;;;;;;;15.73;8.82;;;;;;;4.88;62.63;98987.97;5057396;28;20044;-73
2021/01/25 10:26:44;;;;;;;14.25;8.77;;;;;;;4.69;62.49;98995.91;5039920;28;20413;-73
2021/01/25 10:29:11;;;;;;;17.10;9.63;;;;;;;4.64;63.59;98997.56;5073845;28;20048;-73
2021/01/25 10:31:37;;;;;;;17.83;9.77;;;;;;;4.85;63.62;98994.63;5038607;28;20040;-72
2021/01/25 10:34:04;;;;;;;16.75;9.20;;;;;;;4.94;64.42;98997.94;5066046;28;20394;-73
2021/01/25 10:36:30;;;;;;;14.52;9.40;;;;;;;5.74;61.25;98999.38;5057524;28;20036;-73
2021/01/25 10:38:56;;;;;;;15.35;8.80;;;;;;;6.13;58.84;98998.38;5071688;28;20072;-73
2021/01/25 10:41:24;;;;;;;16.00;8.57;;;;;;;6.25;60.82;99001.19;5057607;28;20040;-73
2021/01/25 10:43:50;;;;;;;18.52;10.73;;;;;;;5.49;62.07;99001.16;5057362;28;20044;-74
2021/01/25 10:46:18;;;;;;;18.48;10.00;;;;;;;5.26;59.93;98996.22;5052845;28;20543;-73
2021/01/25 10:48:44;;;;;;;15.15;9.55;;;;;;;6.21;61.04;99005.41;5071550;28;20106;-73
2021/01/25 10:51:11;;;;;;;18.00;8.73;;;;;;;6.04;60.45;99005.91;5087074;28;20068;-73
2021/01/25 10:53:37;;;;;;;15.38;9.07;;;;;;;6.32;61.40;98996.56;5062371;28;20050;-73
2021/01/25 10:56:04;;;;;;;16.30;9.10;;;;;;;6.45;59.84;98996.50;5072876;28;20067;-74
2021/01/25 10:58:30;;;;;;;15.85;9.50;;;;;;;7.19;57.44;98990.22;5062252;28;20120;-73
2021/01/25 11:00:56;;;;;;;15.55;9.63;;;;;;;7.04;56.70;98993.25;5072514;28;20596;-73
2021/01/25 11:03:23;;;;;;;14.45;8.90;;;;;;;7.04;55.55;98992.44;5073435;28;20044;-72
2021/01/25 11:05:49;;;;;;;14.82;9.68;;;;;;;6.80;57.31;98994.13;5070081;28;20050;-73
2021/01/25 11:08:16;;;;;;;15.18;9.02;;;;;;;6.76;55.88;98994.78;5036860;28;20514;-73
2021/01/25 11:10:42;;;;;;;14.77;8.60;;;;;;;6.73;58.40;98993.34;5047726;28;20127;-74
2021/01/25 11:13:09;;;;;;;16.45;9.40;;;;;;;7.57;55.52;99002.72;5055355;28;20077;-73
2021/01/25 11:15:36;;;;;;;15.13;9.15;;;;;;;8.33;55.32;98999.41;5039729;28;20506;-73
2021/01/25 11:18:03;;;;;;;15.73;9.27;;;;;;;8.14;53.24;98995.09;5063558;28;20059;-72
2021/01/25 11:20:30;;;;;;;15.50;9.82;;;;;;;9.00;50.28;99000.88;5067952;28;20063;-73
2021/01/25 11:22:56;;;;;;;16.60;9.35;;;;;;;8.35;51.99;99003.56;5040064;28;20047;-73
2021/01/25 11:25:23;;;;;;;15.23;9.50;;;;;;;6.56;55.23;99003.91;5056843;28;20095;-73